Time;durP1;ratioP1;P1;durP2;ratioP2;P2;SDS_P1;SDS_P2;PMS_P1;PMS_P2;Temp;Humidity;BMP_temperature;BMP_pressure;BME280_temperature;BME280_humidity;BME280_pressure;Samples;Min_cycle;Max_cycle;Signal;HPM_P1;HPM_P2
2023/09/18 00:01:42;;;;;;;12.48;8.00;;;;;;;19.39;82.77;101045.16;7394512;19;20023;-64
2023/09/18 00:04:09;;;;;;;10.20;8.07;;;;;;;19.43;82.65;101043.81;7394253;19;20018;-63
2023/09/18 00:06:37;;;;;;;10.95;8.40;;;;;;;19.47;82.04;101042.47;7394150;19;20807;-63
2023/09/18 00:09:06;;;;;;;10.23;7.72;;;;;;;19.43;82.35;101035.75;7390731;19;20037;-63
2023/09/18 00:11:34;;;;;;;10.48;8.48;;;;;;;19.38;82.66;101027.34;7394637;19;20010;-63
2023/09/18 00:14:03;;;;;;;10.20;7.75;;;;;;;19.26;83.15;101034.00;7393892;19;20043;-63
2023/09/18 00:16:31;;;;;;;11.00;7.97;;;;;;;19.32;82.81;101039.59;7393952;19;20026;-67
2023/09/18 00:19:18;;;;;;;10.50;7.82;;;;;;;19.12;83.33;101040.88;7391733;19;20371;-64
2023/09/18 00:21:45;;;;;;;11.57;8.00;;;;;;;19.07;84.02;101041.31;7393630;19;20019;-64
2023/09/18 00:24:13;;;;;;;12.00;8.23;;;;;;;19.21;82.99;101046.09;7393348;19;20360;-64
2023/09/18 00:26:40;;;;;;;10.77;7.93;;;;;;;19.15;83.29;101038.66;7393545;19;20506;-63
2023/09/18 00:29:08;;;;;;;12.57;8.65;;;;;;;19.02;83.90;101035.59;7391820;19;20025;-63
2023/09/18 00:31:35;;;;;;;11.77;7.28;;;;;;;19.10;83.68;101024.91;7391713;19;20014;-63
2023/09/18 00:34:03;;;;;;;9.77;7.22;;;;;;;19.19;83.00;101025.75;7393159;19;20018;-63
2023/09/18 00:36:30;;;;;;;11.23;7.63;;;;;;;19.21;82.78;101019.25;7393113;19;20514;-63
2023/09/18 00:38:58;;;;;;;11.98;7.40;;;;;;;19.19;83.16;101002.47;7391441;19;20026;-61
2023/09/18 00:41:25;;;;;;;10.55;7.57;;;;;;;19.17;82.86;100996.41;7393315;19;20018;-61
2023/09/18 00:43:53;;;;;;;11.00;7.32;;;;;;;19.19;82.37;100994.41;7393034;19;20035;-61
2023/09/18 00:46:22;;;;;;;10.45;7.93;;;;;;;19.06;82.83;100985.13;7392861;19;20018;-61
2023/09/18 00:48:50;;;;;;;11.05;8.20;;;;;;;18.88;84.34;100978.00;7389852;19;20026;-62
2023/09/18 00:51:18;;;;;;;10.07;7.45;;;;;;;18.94;84.22;100972.00;7393284;19;20046;-62
2023/09/18 00:53:48;;;;;;;10.75;7.43;;;;;;;19.13;83.09;100960.16;7392871;19;20086;-62
2023/09/18 00:56:17;;;;;;;11.40;7.15;;;;;;;19.18;82.35;100956.97;7392785;19;20089;-62
2023/09/18 00:58:45;;;;;;;10.95;7.10;;;;;;;19.16;82.51;100942.88;7390849;19;20014;-64
2023/09/18 01:01:22;;;;;;;11.88;7.95;;;;;;;19.14;81.99;100932.28;7392503;19;20941;-59
2023/09/18 01:03:51;;;;;;;9.20;7.20;;;;;;;19.12;82.36;100942.38;7392786;19;20026;-60
2023/09/18 01:06:20;;;;;;;10.82;7.00;;;;;;;19.11;82.02;100923.72;7389640;19;20014;-59
2023/09/18 01:08:50;;;;;;;11.52;7.90;;;;;;;19.15;82.29;100915.16;7390500;19;20014;-59
2023/09/18 01:11:37;;;;;;;12.68;8.10;;;;;;;19.13;82.08;100913.66;7392652;19;20018;-59
2023/09/18 01:14:28;;;;;;;13.18;7.80;;;;;;;19.04;82.99;100910.13;7392198;19;20018;-59
2023/09/18 01:16:58;;;;;;;12.63;7.95;;;;;;;18.94;83.70;100904.06;7392079;19;20015;-58
2023/09/18 01:19:44;;;;;;;10.82;7.22;;;;;;;19.10;82.60;100900.56;7389514;19;20015;-58
2023/09/18 01:22:17;;;;;;;11.10;7.90;;;;;;;19.13;82.81;100895.72;7392246;19;20022;-57
2023/09/18 01:24:49;;;;;;;9.73;7.07;;;;;;;19.14;82.93;100893.88;7392010;19;20047;-58
2023/09/18 01:27:17;;;;;;;9.45;6.82;;;;;;;19.13;82.84;100890.34;7392282;19;20119;-58
2023/09/18 01:29:46;;;;;;;13.70;7.65;;;;;;;19.16;82.75;100881.97;7389890;19;20023;-58
2023/09/18 01:32:14;;;;;;;11.38;7.55;;;;;;;19.09;83.63;100870.22;7391590;19;20018;-59
2023/09/18 01:34:47;;;;;;;12.55;7.68;;;;;;;19.07;83.47;100874.88;7392513;19;20025;-59
2023/09/18 01:37:17;;;;;;;9.55;7.10;;;;;;;19.01;83.52;100867.50;7392521;19;20513;-59
2023/09/18 01:39:46;;;;;;;10.65;7.50;;;;;;;18.88;84.01;100870.66;7389032;19;20384;-57
2023/09/18 01:42:14;;;;;;;9.75;6.90;;;;;;;18.90;83.96;100863.28;7392246;19;20043;-58
2023/09/18 01:44:44;;;;;;;9.98;6.78;;;;;;;19.04;83.51;100866.31;7391260;19;20044;-60
2023/09/18 01:47:16;;;;;;;11.70;7.07;;;;;;;19.05;82.68;100868.84;7391639;19;20014;-58
2023/09/18 01:49:44;;;;;;;11.32;6.95;;;;;;;18.91;83.65;100869.50;7387196;19;20025;-59
2023/09/18 01:52:12;;;;;;;10.00;6.57;;;;;;;18.92;83.67;100874.69;7391368;19;20027;-59
2023/09/18 01:54:39;;;;;;;10.43;6.70;;;;;;;18.99;83.12;100873.03;7391271;19;20047;-59
2023/09/18 01:57:10;;;;;;;9.02;6.55;;;;;;;19.06;82.52;100867.84;7389780;19;20014;-59
2023/09/18 01:59:37;;;;;;;10.35;6.90;;;;;;;19.07;82.67;100866.00;7389589;19;20027;-59
2023/09/18 02:02:09;;;;;;;10.35;6.90;;;;;;;19.04;82.57;100863.63;7391764;19;20022;-59
2023/09/18 02:04:49;;;;;;;10.18;6.95;;;;;;;18.99;82.87;100853.41;7390648;19;20534;-60
2023/09/18 02:07:33;;;;;;;;;;;;;;;18.80;83.67;100853.69;7390691;19;20070;-62
2023/09/18 02:10:01;;;;;;;10.18;6.80;;;;;;;18.81;83.78;100844.63;7388406;19;20408;-62
2023/09/18 02:12:29;;;;;;;9.45;6.90;;;;;;;18.84;83.11;100847.84;7390431;19;20014;-63
2023/09/18 02:14:58;;;;;;;9.60;6.57;;;;;;;18.90;83.06;100846.34;7389191;19;20552;-63
2023/09/18 02:17:25;;;;;;;10.20;6.82;;;;;;;18.94;83.18;100839.66;7393084;19;20015;-62
2023/09/18 02:19:53;;;;;;;9.43;6.35;;;;;;;18.97;82.65;100842.00;7394424;19;20027;-62
2023/09/18 02:22:21;;;;;;;10.30;6.45;;;;;;;18.98;82.05;100847.19;7397202;19;20022;-62
2023/09/18 02:24:48;;;;;;;9.40;6.20;;;;;;;18.92;82.41;100853.22;7395911;19;20503;-62
2023/09/18 02:27:18;;;;;;;9.63;6.32;;;;;;;18.89;82.50;100844.69;7397387;19;20035;-62
2023/09/18 02:29:45;;;;;;;9.13;6.47;;;;;;;18.90;82.20;100841.00;7394084;19;20094;-62
2023/09/18 02:32:13;;;;;;;10.40;6.57;;;;;;;18.89;82.41;100844.69;7396869;19;20356;-61
2023/09/18 02:34:41;;;;;;;10.50;6.65;;;;;;;18.89;82.17;100852.72;7395649;19;20014;-61
2023/09/18 02:37:08;;;;;;;9.65;6.10;;;;;;;18.87;81.99;100852.88;7396240;19;20119;-61
2023/09/18 02:39:36;;;;;;;11.43;6.20;;;;;;;18.86;81.93;100847.69;7394058;19;20016;-62
2023/09/18 02:42:03;;;;;;;9.13;6.13;;;;;;;18.87;81.88;100847.50;7397772;19;20018;-62
2023/09/18 02:44:31;;;;;;;9.85;5.80;;;;;;;18.83;81.67;100842.66;7397398;19;20018;-57
2023/09/18 02:46:58;;;;;;;9.65;6.10;;;;;;;18.78;81.75;100836.94;7396395;19;20426;-56
2023/09/18 02:49:26;;;;;;;8.65;5.97;;;;;;;18.72;81.14;100830.38;7393380;19;20021;-54
2023/09/18 02:51:53;;;;;;;10.13;6.72;;;;;;;18.67;81.44;100820.13;7395042;19;20018;-60
2023/09/18 02:54:21;;;;;;;9.18;5.97;;;;;;;18.66;81.36;100812.22;7396336;19;20355;-59
2023/09/18 02:56:48;;;;;;;9.88;6.05;;;;;;;18.61;81.72;100807.34;7396265;19;20495;-59
2023/09/18 02:59:16;;;;;;;10.27;6.15;;;;;;;18.60;81.90;100807.53;7394029;19;20014;-59
2023/09/18 03:01:43;;;;;;;10.82;7.03;;;;;;;18.61;81.47;100807.34;7395777;19;20360;-59
2023/09/18 03:04:11;;;;;;;10.45;6.60;;;;;;;18.66;81.18;100801.47;7396315;19;20392;-59
2023/09/18 03:06:39;;;;;;;10.32;6.30;;;;;;;18.68;81.19;100794.94;7396135;19;20014;-59
2023/09/18 03:09:07;;;;;;;9.57;6.30;;;;;;;18.62;81.10;100801.00;7393492;19;20015;-60
2023/09/18 03:11:34;;;;;;;10.45;6.85;;;;;;;18.60;81.27;100797.63;7396142;19;20022;-60
2023/09/18 03:14:02;;;;;;;9.93;6.30;;;;;;;18.62;81.36;100794.75;7395800;19;20082;-60
2023/09/18 03:16:32;;;;;;;11.20;6.40;;;;;;;18.65;81.00;100781.88;7395108;19;20393;-60
2023/09/18 03:19:00;;;;;;;10.07;6.63;;;;;;;18.59;81.11;100789.75;7393508;19;20022;-60
2023/09/18 03:21:27;;;;;;;10.07;6.28;;;;;;;18.65;81.40;100772.97;7395839;19;20393;-60
2023/09/18 03:23:55;;;;;;;10.82;5.95;;;;;;;18.63;81.20;100770.47;7395675;19;20014;-60
2023/09/18 03:26:22;;;;;;;9.63;5.93;;;;;;;18.62;80.93;100767.94;7393599;19;20036;-60
2023/09/18 03:28:50;;;;;;;9.85;6.32;;;;;;;18.62;81.21;100762.56;7389518;19;20057;-60
2023/09/18 03:31:18;;;;;;;9.00;6.20;;;;;;;18.67;80.86;100768.31;7395270;19;20055;-60
2023/09/18 03:33:46;;;;;;;10.07;6.22;;;;;;;18.66;80.77;100761.25;7395066;19;20369;-60
2023/09/18 03:36:14;;;;;;;8.43;5.85;;;;;;;18.54;81.97;100750.00;7395248;19;20018;-60
2023/09/18 03:38:42;;;;;;;10.73;6.55;;;;;;;18.63;81.68;100745.50;7393273;19;20018;-59
2023/09/18 03:41:09;;;;;;;9.45;6.22;;;;;;;18.68;81.14;100735.09;7394770;19;20007;-61
2023/09/18 03:43:37;;;;;;;8.73;6.07;;;;;;;18.68;81.51;100735.09;7394649;19;20018;-61
2023/09/18 03:46:07;;;;;;;10.50;6.55;;;;;;;18.66;81.39;100721.88;7394482;19;20015;-61
2023/09/18 03:48:37;;;;;;;10.45;6.65;;;;;;;18.71;81.43;100719.53;7393021;19;20043;-61
2023/09/18 03:51:05;;;;;;;10.77;6.18;;;;;;;18.81;81.14;100705.97;7394517;19;20043;-61
2023/09/18 03:53:33;;;;;;;10.25;5.93;;;;;;;18.86;81.05;100702.78;7394306;19;20491;-61
2023/09/18 03:56:01;;;;;;;10.20;6.03;;;;;;;18.83;81.20;100692.38;7393900;19;20049;-61
2023/09/18 03:58:29;;;;;;;10.65;6.20;;;;;;;18.84;81.03;100694.06;7392587;19;20028;-60
2023/09/18 04:00:57;;;;;;;9.60;5.78;;;;;;;18.85;81.01;100682.28;7392730;19;20025;-63
2023/09/18 04:03:24;;;;;;;10.93;6.10;;;;;;;18.90;80.78;100672.75;7394053;19;20018;-63
2023/09/18 04:05:52;;;;;;;10.55;6.28;;;;;;;18.90;81.13;100667.38;7392610;19;20022;-63
2023/09/18 04:08:19;;;;;;;10.57;6.15;;;;;;;18.93;80.46;100656.31;7390722;19;20044;-63
2023/09/18 04:10:48;;;;;;;11.68;6.03;;;;;;;18.91;81.20;100644.06;7392529;19;20086;-63
2023/09/18 04:13:15;;;;;;;10.50;6.40;;;;;;;18.78;81.74;100631.19;7393535;19;20021;-63
2023/09/18 04:15:43;;;;;;;9.57;6.20;;;;;;;18.82;81.31;100629.00;7393497;19;20010;-63
2023/09/18 04:18:11;;;;;;;9.20;5.97;;;;;;;18.89;81.12;100624.63;7391993;19;20018;-63
2023/09/18 04:20:38;;;;;;;10.48;6.43;;;;;;;18.96;81.05;100618.41;7391856;19;20018;-63
2023/09/18 04:23:21;;;;;;;8.25;5.82;;;;;;;19.08;80.36;100607.28;7393206;19;20368;-63
2023/09/18 04:25:50;;;;;;;10.23;6.53;;;;;;;19.04;81.02;100612.19;7393146;19;20429;-63
2023/09/18 04:28:19;;;;;;;10.30;6.00;;;;;;;19.12;80.66;100601.41;7391961;19;20344;-64
2023/09/18 04:30:47;;;;;;;9.90;6.05;;;;;;;19.18;80.46;100598.03;7393821;19;20507;-60
2023/09/18 04:33:15;;;;;;;9.93;5.55;;;;;;;19.19;80.48;100593.50;7393370;19;20051;-63
2023/09/18 04:35:44;;;;;;;11.52;6.18;;;;;;;19.22;80.65;100590.47;7393013;19;20022;-63
2023/09/18 04:38:11;;;;;;;9.57;5.38;;;;;;;19.25;80.41;100582.06;7391844;19;20034;-63
2023/09/18 04:40:39;;;;;;;8.73;5.30;;;;;;;19.28;80.58;100583.56;7389845;19;20511;-63
2023/09/18 04:43:08;;;;;;;11.60;5.32;;;;;;;19.33;80.46;100579.34;7392654;19;20507;-62
2023/09/18 04:45:36;;;;;;;10.30;5.72;;;;;;;19.37;80.10;100577.16;7392427;19;20048;-60
2023/09/18 04:48:05;;;;;;;10.15;5.97;;;;;;;19.37;80.03;100571.78;7390157;19;20018;-58
2023/09/18 04:50:33;;;;;;;11.18;5.47;;;;;;;19.36;80.61;100560.19;7390949;19;20030;-58
2023/09/18 04:53:01;;;;;;;9.80;5.32;;;;;;;19.41;80.29;100551.63;7392592;19;20421;-58
2023/09/18 04:55:29;;;;;;;10.50;5.60;;;;;;;19.44;80.14;100541.34;7392612;19;20022;-60
2023/09/18 04:57:58;;;;;;;12.38;5.32;;;;;;;19.47;79.81;100524.06;7390069;19;20024;-60
2023/09/18 05:00:27;;;;;;;7.90;5.45;;;;;;;19.50;79.55;100518.34;7391130;19;20018;-60
2023/09/18 05:02:54;;;;;;;10.00;5.40;;;;;;;19.50;79.60;100512.97;7392083;19;20018;-60
2023/09/18 05:05:22;;;;;;;9.38;5.22;;;;;;;19.51;79.84;100509.25;7392330;19;20527;-61
2023/09/18 05:07:50;;;;;;;8.55;5.57;;;;;;;19.53;79.31;100506.38;7391074;19;20051;-61
2023/09/18 05:10:17;;;;;;;8.70;5.15;;;;;;;19.55;79.21;100499.84;7391967;19;20047;-61
2023/09/18 05:12:45;;;;;;;9.90;4.95;;;;;;;19.56;79.44;100495.28;7392353;19;20015;-61
2023/09/18 05:15:13;;;;;;;10.45;5.20;;;;;;;19.60;79.38;100496.59;7392047;19;20014;-61
2023/09/18 05:17:42;;;;;;;8.73;5.18;;;;;;;19.67;79.35;100494.91;7391127;19;20018;-61
2023/09/18 05:20:13;;;;;;;8.65;4.80;;;;;;;19.69;78.79;100495.59;7390906;19;20023;-61
2023/09/18 05:22:42;;;;;;;9.90;5.25;;;;;;;19.65;79.36;100488.88;7391919;19;20487;-61
2023/09/18 05:25:14;;;;;;;8.88;4.90;;;;;;;19.63;79.50;100486.38;7391462;19;20021;-61
2023/09/18 05:27:45;;;;;;;9.25;5.32;;;;;;;19.62;79.27;100495.47;7390784;19;20025;-62
2023/09/18 05:30:15;;;;;;;11.98;5.20;;;;;;;19.63;79.71;100488.22;7391988;19;20018;-61
2023/09/18 05:32:44;;;;;;;9.70;5.18;;;;;;;19.67;79.26;100486.84;7392062;19;20022;-56
2023/09/18 05:35:12;;;;;;;9.07;5.10;;;;;;;19.67;79.54;100476.09;7391334;19;20073;-53
2023/09/18 05:37:41;;;;;;;10.40;5.18;;;;;;;19.70;79.13;100476.59;7389117;19;20022;-57
2023/09/18 05:40:11;;;;;;;12.88;5.28;;;;;;;19.77;78.85;100470.50;7389965;19;20019;-61
2023/09/18 05:42:43;;;;;;;8.43;4.82;;;;;;;19.76;78.98;100466.97;7391650;19;20023;-60
2023/09/18 05:45:17;;;;;;;9.30;5.05;;;;;;;19.82;78.47;100476.16;7390967;19;20479;-59
2023/09/18 05:47:44;;;;;;;8.43;4.75;;;;;;;19.83;78.39;100484.03;7390423;19;20022;-59
2023/09/18 05:50:16;;;;;;;10.80;5.10;;;;;;;19.88;78.30;100489.72;7391435;19;20486;-59
2023/09/18 05:52:45;;;;;;;10.13;5.00;;;;;;;19.91;78.13;100475.06;7395361;19;20057;-59
2023/09/18 05:55:15;;;;;;;10.52;5.07;;;;;;;19.98;77.61;100481.41;7398012;19;20022;-60
2023/09/18 05:57:42;;;;;;;9.52;4.68;;;;;;;20.00;77.36;100462.41;7396962;19;20015;-60
2023/09/18 06:00:12;;;;;;;11.93;5.10;;;;;;;20.05;77.03;100465.38;7396901;19;20018;-60
2023/09/18 06:02:40;;;;;;;7.90;5.20;;;;;;;20.08;76.88;100447.03;7399700;19;20039;-60
2023/09/18 06:05:11;;;;;;;9.93;4.93;;;;;;;20.11;76.94;100453.88;7400071;19;20019;-59
2023/09/18 06:07:39;;;;;;;11.25;5.50;;;;;;;20.11;76.96;100438.63;7398982;19;20487;-59
2023/09/18 06:10:07;;;;;;;9.65;5.10;;;;;;;20.14;76.42;100435.53;7398924;19;20027;-60
2023/09/18 06:12:34;;;;;;;7.78;4.93;;;;;;;20.15;76.54;100418.41;7396488;19;20035;-58
2023/09/18 06:15:04;;;;;;;7.80;5.00;;;;;;;20.17;76.27;100408.28;7397888;19;20082;-60
2023/09/18 06:17:31;;;;;;;9.38;4.80;;;;;;;20.20;76.54;100415.16;7395606;19;20018;-60
2023/09/18 06:19:59;;;;;;;9.13;5.03;;;;;;;20.20;76.44;100425.91;7397038;19;20014;-60
2023/09/18 06:22:26;;;;;;;9.27;5.32;;;;;;;20.21;76.79;100414.13;7397501;19;20055;-61
2023/09/18 06:24:54;;;;;;;15.38;5.53;;;;;;;20.23;76.96;100424.72;7397344;19;20014;-60
2023/09/18 06:27:21;;;;;;;10.77;6.47;;;;;;;20.21;77.04;100423.03;7396906;19;20011;-64
2023/09/18 06:29:49;;;;;;;12.10;6.00;;;;;;;20.24;76.85;100418.31;7394002;19;20015;-64
2023/09/18 06:33:31;;;;;;;9.10;5.47;;;;;;;20.24;76.90;100416.47;7425583;19;20367;-63
2023/09/18 06:35:59;;;;;;;9.60;5.47;;;;;;;20.30;77.29;100417.56;7426723;19;20478;-63
2023/09/18 06:38:27;;;;;;;11.98;5.28;;;;;;;20.35;76.74;100417.88;7426058;19;20526;-63
2023/09/18 06:40:55;;;;;;;8.70;5.22;;;;;;;20.37;77.36;100423.88;7428513;19;20034;-61
2023/09/18 06:43:23;;;;;;;10.38;5.53;;;;;;;20.39;77.04;100411.94;7427729;19;20011;-64
2023/09/18 06:45:50;;;;;;;9.20;5.03;;;;;;;20.41;76.71;100417.09;7427663;19;20018;-62
2023/09/18 06:48:18;;;;;;;10.45;5.20;;;;;;;20.37;76.32;100413.94;7425587;19;20018;-63
2023/09/18 06:50:45;;;;;;;8.73;4.97;;;;;;;20.41;76.92;100420.66;7425468;19;20018;-63
2023/09/18 06:53:12;;;;;;;11.73;5.35;;;;;;;20.40;76.41;100424.34;7424808;19;20361;-63
2023/09/18 06:55:40;;;;;;;9.98;4.80;;;;;;;20.41;76.58;100427.88;7426181;19;20089;-63
2023/09/18 06:58:08;;;;;;;8.95;5.05;;;;;;;20.39;76.66;100428.06;7425229;19;20416;-63
2023/09/18 07:00:35;;;;;;;8.88;4.72;;;;;;;20.40;76.65;100428.91;7427175;19;20077;-63
2023/09/18 07:03:03;;;;;;;7.35;4.88;;;;;;;20.38;77.03;100430.94;7427403;19;20042;-63
2023/09/18 07:05:30;;;;;;;9.52;5.40;;;;;;;20.39;76.71;100424.53;7426525;19;20494;-63
2023/09/18 07:07:58;;;;;;;9.07;5.28;;;;;;;20.36;76.39;100408.78;7424064;19;20682;-62
2023/09/18 07:10:26;;;;;;;10.25;4.88;;;;;;;20.40;76.45;100418.97;7427080;19;20038;-62
2023/09/18 07:12:54;;;;;;;9.35;5.45;;;;;;;20.39;76.85;100419.16;7424811;19;20015;-63
2023/09/18 07:15:21;;;;;;;7.93;5.32;;;;;;;20.38;77.06;100406.75;7426628;19;20467;-63
2023/09/18 07:17:49;;;;;;;10.60;5.50;;;;;;;20.38;77.10;100395.97;7425405;19;20109;-63
2023/09/18 07:20:16;;;;;;;10.15;5.22;;;;;;;20.37;77.28;100376.28;7425768;19;20021;-63
2023/09/18 07:22:47;;;;;;;8.52;5.68;;;;;;;20.43;76.93;100385.50;7426808;19;20471;-63
2023/09/18 07:25:16;;;;;;;11.63;5.93;;;;;;;20.41;76.87;100398.28;7426594;19;20020;-63
2023/09/18 07:27:44;;;;;;;8.73;4.93;;;;;;;20.39;77.50;100397.66;7425363;19;20024;-64
2023/09/18 07:30:12;;;;;;;8.88;5.25;;;;;;;20.44;76.98;100405.97;7426370;19;20496;-63
2023/09/18 07:32:40;;;;;;;10.63;5.25;;;;;;;20.43;77.48;100402.47;7424731;19;20010;-62
2023/09/18 07:35:09;;;;;;;9.55;5.95;;;;;;;20.45;77.40;100410.34;7426070;19;20381;-62
2023/09/18 07:37:36;;;;;;;10.93;5.80;;;;;;;20.53;77.53;100406.75;7425421;19;20014;-62
2023/09/18 07:40:05;;;;;;;9.25;5.50;;;;;;;20.53;77.31;100404.91;7425548;19;20014;-63
2023/09/18 07:42:33;;;;;;;11.38;5.18;;;;;;;20.52;77.53;100413.97;7426029;19;20021;-63
2023/09/18 07:45:00;;;;;;;11.63;5.25;;;;;;;20.54;77.74;100406.56;7395631;19;20471;-63
2023/09/18 07:47:28;;;;;;;9.65;5.35;;;;;;;20.62;77.45;100411.84;7396698;19;20022;-62
2023/09/18 07:49:56;;;;;;;9.88;5.10;;;;;;;20.66;77.93;100413.16;7396886;19;20018;-62
2023/09/18 07:52:24;;;;;;;8.38;5.05;;;;;;;20.61;77.41;100418.25;7395527;19;20039;-63
2023/09/18 07:54:51;;;;;;;8.20;5.13;;;;;;;20.60;77.93;100434.56;7397266;19;20027;-63
2023/09/18 07:57:20;;;;;;;8.07;5.38;;;;;;;20.61;77.66;100433.59;7396412;19;20021;-62
2023/09/18 07:59:47;;;;;;;10.15;5.43;;;;;;;20.57;77.87;100418.84;7393393;19;20042;-62
2023/09/18 08:02:15;;;;;;;11.57;5.53;;;;;;;20.59;78.10;100411.38;7396883;19;20018;-62
2023/09/18 08:04:43;;;;;;;8.80;5.20;;;;;;;20.64;78.29;100419.72;7396459;19;20519;-61
2023/09/18 08:07:12;;;;;;;8.30;5.45;;;;;;;20.61;78.57;100436.28;7397015;19;20077;-61
2023/09/18 08:09:39;;;;;;;9.93;5.50;;;;;;;20.62;78.34;100433.38;7394174;19;20082;-62
2023/09/18 08:12:08;;;;;;;10.48;5.47;;;;;;;20.65;78.41;100429.50;7395791;19;20011;-61
2023/09/18 08:14:36;;;;;;;8.80;5.00;;;;;;;20.66;78.44;100418.53;7396670;19;20038;-61
2023/09/18 08:17:04;;;;;;;9.98;5.38;;;;;;;20.70;78.58;100413.59;7396612;19;20037;-61
2023/09/18 08:19:37;;;;;;;8.30;5.35;;;;;;;20.71;78.39;100422.50;7393587;19;20022;-62
2023/09/18 08:22:04;;;;;;;9.68;5.28;;;;;;;20.75;78.30;100432.72;7396242;19;20018;-62
2023/09/18 08:24:32;;;;;;;8.70;5.38;;;;;;;20.79;78.20;100425.09;7395851;19;20018;-63
2023/09/18 08:26:59;;;;;;;12.13;5.47;;;;;;;20.85;77.82;100435.13;7395242;19;20356;-63
2023/09/18 08:29:27;;;;;;;8.32;5.18;;;;;;;20.94;77.89;100432.13;7393372;19;20035;-63
2023/09/18 08:31:54;;;;;;;11.00;5.18;;;;;;;20.98;78.06;100439.81;7394900;19;20018;-64
2023/09/18 08:34:22;;;;;;;11.27;5.88;;;;;;;20.98;77.88;100434.44;7395566;19;20135;-63
2023/09/18 08:36:50;;;;;;;8.80;5.03;;;;;;;21.06;77.37;100443.28;7395218;19;20015;-63
2023/09/18 08:39:18;;;;;;;9.98;5.18;;;;;;;21.15;77.30;100444.81;7393344;19;20026;-63
2023/09/18 08:41:50;;;;;;;10.15;5.20;;;;;;;21.26;76.75;100443.47;7395485;19;20375;-62
2023/09/18 08:44:19;;;;;;;9.18;5.72;;;;;;;21.30;76.91;100454.72;7395210;19;20367;-63
2023/09/18 08:46:46;;;;;;;9.23;5.13;;;;;;;21.43;76.33;100446.78;7395282;19;20042;-63
2023/09/18 08:49:14;;;;;;;11.38;5.25;;;;;;;21.56;76.15;100446.94;7392960;19;20062;-63
2023/09/18 08:51:42;;;;;;;7.30;4.80;;;;;;;21.56;76.02;100446.94;7395112;19;20022;-62
2023/09/18 08:54:10;;;;;;;7.88;4.72;;;;;;;21.61;75.73;100425.63;7391508;19;20022;-62
2023/09/18 08:56:38;;;;;;;9.48;5.13;;;;;;;21.73;75.56;100430.50;7392781;19;20669;-62
2023/09/18 08:59:05;;;;;;;10.25;5.30;;;;;;;21.81;75.60;100431.19;7392311;19;20026;-63
2023/09/18 09:01:33;;;;;;;7.78;4.55;;;;;;;21.81;75.23;100425.78;7395366;19;20015;-62
2023/09/18 09:04:00;;;;;;;10.40;5.05;;;;;;;21.88;74.99;100429.38;7395104;19;20406;-62
2023/09/18 09:06:28;;;;;;;11.07;4.88;;;;;;;21.97;74.45;100408.50;7395189;19;20018;-62
2023/09/18 09:08:55;;;;;;;10.45;4.82;;;;;;;22.12;74.44;100398.44;7392262;19;20015;-62
2023/09/18 09:11:23;;;;;;;9.00;4.18;;;;;;;22.20;73.71;100389.38;7394414;19;20031;-62
2023/09/18 09:14:18;;;;;;;8.45;4.38;;;;;;;22.24;73.76;100412.25;7392569;19;20014;-62
2023/09/18 09:16:50;;;;;;;9.38;4.13;;;;;;;22.11;74.30;100436.41;7394001;19;20028;-62
2023/09/18 09:19:19;;;;;;;9.95;4.30;;;;;;;22.12;73.55;100428.09;7390643;19;20515;-62
2023/09/18 09:21:48;;;;;;;9.60;3.88;;;;;;;22.12;73.24;100422.72;7393868;19;20032;-62
2023/09/18 09:24:16;;;;;;;9.07;4.00;;;;;;;22.15;72.59;100413.44;7394338;19;20039;-62
2023/09/18 09:26:43;;;;;;;11.10;4.20;;;;;;;22.19;72.69;100403.91;7394935;19;20616;-62
2023/09/18 09:29:18;;;;;;;9.30;3.92;;;;;;;22.28;71.60;100418.06;7392262;19;20035;-62
2023/09/18 09:31:45;;;;;;;12.52;3.92;;;;;;;22.30;71.69;100410.63;7394096;19;20018;-63
2023/09/18 09:34:27;;;;;;;8.85;3.70;;;;;;;22.43;71.58;100416.09;7392150;19;20014;-63
2023/09/18 09:36:57;;;;;;;10.23;3.63;;;;;;;22.46;71.43;100441.84;7392038;19;20510;-62
2023/09/18 09:39:26;;;;;;;11.80;4.10;;;;;;;22.51;71.38;100434.84;7391106;19;20400;-62
2023/09/18 09:41:53;;;;;;;10.63;4.07;;;;;;;22.55;71.23;100441.50;7393226;19;20014;-63
2023/09/18 09:44:21;;;;;;;9.48;3.85;;;;;;;22.57;71.78;100423.22;7393798;19;20011;-62
2023/09/18 09:46:50;;;;;;;11.30;3.88;;;;;;;22.62;71.32;100396.47;7393058;19;20087;-63
2023/09/18 09:49:19;;;;;;;11.90;3.63;;;;;;;22.66;71.36;100417.66;7390936;19;20038;-62
2023/09/18 09:51:47;;;;;;;9.60;3.85;;;;;;;22.70;70.91;100411.66;7392960;19;20025;-63
2023/09/18 09:54:34;;;;;;;11.73;3.88;;;;;;;22.69;70.22;100420.81;7391741;19;20022;-62
2023/09/18 09:57:05;;;;;;;9.05;3.63;;;;;;;22.66;71.39;100418.50;7392231;19;20018;-62
2023/09/18 09:59:35;;;;;;;9.93;3.65;;;;;;;22.66;70.73;100431.16;7390950;19;20047;-62
2023/09/18 10:02:03;;;;;;;10.18;3.63;;;;;;;22.63;70.34;100440.50;7392535;19;20018;-62
2023/09/18 10:04:34;;;;;;;11.02;3.92;;;;;;;22.66;70.47;100431.16;7392231;19;20022;-62
2023/09/18 10:07:09;;;;;;;9.43;3.83;;;;;;;22.71;70.31;100440.34;7391761;19;20018;-62
2023/09/18 10:09:41;;;;;;;12.80;3.92;;;;;;;22.66;70.92;100428.47;7390825;19;20021;-61
2023/09/18 10:12:15;;;;;;;9.82;3.83;;;;;;;22.62;70.27;100426.16;7392367;19;20026;-62
2023/09/18 10:14:48;;;;;;;13.65;4.32;;;;;;;22.57;70.72;100427.81;7392166;19;20082;-62
2023/09/18 10:17:30;;;;;;;11.85;3.45;;;;;;;22.51;71.47;100440.25;7390881;19;20066;-61
2023/09/18 10:20:10;;;;;;;8.05;3.50;;;;;;;22.54;70.68;100439.00;7390882;19;20388;-62
2023/09/18 10:22:42;;;;;;;9.15;3.80;;;;;;;22.56;70.63;100448.56;7391797;19;20011;-62
2023/09/18 10:25:19;;;;;;;10.52;3.42;;;;;;;22.65;70.17;100435.72;7390710;19;20033;-62
2023/09/18 10:28:12;;;;;;;11.73;3.40;;;;;;;22.67;70.14;100439.09;7391065;19;20038;-61
2023/09/18 10:30:37;;;;;;;9.63;3.33;;;;;;;22.68;70.38;100440.75;7391802;19;20027;-62
2023/09/18 10:33:07;;;;;;;11.27;3.40;;;;;;;22.72;70.17;100443.88;7391850;19;20043;-62
2023/09/18 10:35:35;;;;;;;11.00;3.88;;;;;;;22.74;69.91;100437.25;7391939;19;20033;-62
2023/09/18 10:38:06;;;;;;;12.35;3.95;;;;;;;22.75;70.14;100428.09;7389873;19;20023;-62
2023/09/18 10:40:35;;;;;;;11.82;3.40;;;;;;;22.77;69.90;100436.00;7391959;19;20621;-62
2023/09/18 10:43:09;;;;;;;11.13;3.03;;;;;;;22.76;70.04;100439.75;7391238;19;20011;-62
2023/09/18 10:45:37;;;;;;;9.60;3.63;;;;;;;22.69;70.20;100450.50;7391152;19;20022;-62
2023/09/18 10:48:08;;;;;;;7.57;3.40;;;;;;;22.69;69.76;100450.50;7389795;19;20050;-61
2023/09/18 10:50:36;;;;;;;11.75;3.55;;;;;;;22.68;70.43;100438.03;7390679;19;20018;-61
2023/09/18 10:53:04;;;;;;;9.25;3.40;;;;;;;22.59;70.53;100433.84;7391022;19;20010;-61
2023/09/18 10:55:33;;;;;;;9.90;3.15;;;;;;;22.59;70.19;100444.66;7390894;19;20022;-61
2023/09/18 10:58:01;;;;;;;9.45;3.00;;;;;;;22.50;70.58;100443.13;7388823;19;20026;-61
2023/09/18 11:00:31;;;;;;;7.57;2.80;;;;;;;22.41;70.69;100431.66;7391314;19;20010;-64
2023/09/18 11:03:14;;;;;;;10.15;3.55;;;;;;;22.39;70.76;100434.53;7389126;19;20019;-63
2023/09/18 11:05:44;;;;;;;11.23;3.25;;;;;;;22.44;70.89;100460.13;7390824;19;20026;-63
2023/09/18 11:08:28;;;;;;;7.47;3.20;;;;;;;22.54;70.32;100456.00;7389964;19;20384;-63
2023/09/18 11:10:56;;;;;;;13.38;3.67;;;;;;;22.61;70.35;100456.06;7390364;19;20028;-63
2023/09/18 11:13:33;;;;;;;8.55;3.45;;;;;;;22.81;69.81;100466.97;7389220;19;20017;-63
2023/09/18 11:16:15;;;;;;;9.13;3.10;;;;;;;22.94;68.89;100458.13;7390254;19;20014;-63
2023/09/18 11:19:17;;;;;;;9.07;2.90;;;;;;;23.04;68.57;100464.81;7390573;19;20018;-63
2023/09/18 11:21:45;;;;;;;10.10;2.80;;;;;;;23.11;68.81;100465.66;7397142;19;20015;-63
2023/09/18 11:24:19;;;;;;;9.05;3.13;;;;;;;23.25;68.28;100463.03;7397940;19;20499;-62
2023/09/18 11:26:48;;;;;;;8.05;3.35;;;;;;;23.24;68.07;100473.00;7400943;19;20548;-62
2023/09/18 11:29:21;;;;;;;9.15;2.80;;;;;;;23.19;68.88;100464.66;7397392;19;20010;-62
2023/09/18 11:31:55;;;;;;;8.60;3.10;;;;;;;23.10;68.92;100471.28;7398843;19;20015;-63
2023/09/18 11:34:24;;;;;;;;;;;;;;;22.92;68.94;100474.53;7398675;19;20043;-63